sensor_id;sensor_type;location;lat;lon;timestamp;P1;durP1;ratioP1;P2;durP2;ratioP2
25435;SDS011;13363;52.772;-3.890;2022-07-21T00:01:52;1.10;;;0.93;;
25435;SDS011;13363;52.772;-3.890;2022-07-21T00:04:19;3.70;;;1.10;;
25435;SDS011;13363;52.772;-3.890;2022-07-21T00:06:46;1.17;;;1.00;;
25435;SDS011;13363;52.772;-3.890;2022-07-21T00:09:12;1.33;;;1.23;;
25435;SDS011;13363;52.772;-3.890;2022-07-21T00:11:39;3.50;;;1.10;;
25435;SDS011;13363;52.772;-3.890;2022-07-21T00:14:07;1.10;;;0.97;;
25435;SDS011;13363;52.772;-3.890;2022-07-21T00:16:34;2.47;;;0.90;;
25435;SDS011;13363;52.772;-3.890;2022-07-21T00:19:01;1.03;;;1.03;;
25435;SDS011;13363;52.772;-3.890;2022-07-21T00:21:27;4.00;;;1.50;;
25435;SDS011;13363;52.772;-3.890;2022-07-21T00:23:53;1.00;;;1.00;;
25435;SDS011;13363;52.772;-3.890;2022-07-21T00:26:19;2.53;;;1.03;;
25435;SDS011;13363;52.772;-3.890;2022-07-21T00:28:45;0.97;;;0.97;;
25435;SDS011;13363;52.772;-3.890;2022-07-21T00:31:11;0.90;;;0.90;;
25435;SDS011;13363;52.772;-3.890;2022-07-21T00:33:37;1.80;;;0.90;;
25435;SDS011;13363;52.772;-3.890;2022-07-21T00:36:03;0.93;;;0.93;;
25435;SDS011;13363;52.772;-3.890;2022-07-21T00:38:29;1.10;;;1.00;;
25435;SDS011;13363;52.772;-3.890;2022-07-21T00:40:55;1.33;;;1.30;;
25435;SDS011;13363;52.772;-3.890;2022-07-21T00:43:21;1.90;;;1.20;;
25435;SDS011;13363;52.772;-3.890;2022-07-21T00:45:47;0.93;;;0.93;;
25435;SDS011;13363;52.772;-3.890;2022-07-21T00:48:13;1.90;;;1.10;;
25435;SDS011;13363;52.772;-3.890;2022-07-21T00:50:39;1.33;;;1.30;;
25435;SDS011;13363;52.772;-3.890;2022-07-21T00:53:05;1.10;;;1.10;;
25435;SDS011;13363;52.772;-3.890;2022-07-21T00:55:31;1.00;;;1.00;;
25435;SDS011;13363;52.772;-3.890;2022-07-21T00:58:00;1.30;;;1.20;;
25435;SDS011;13363;52.772;-3.890;2022-07-21T01:00:27;2.03;;;1.20;;
25435;SDS011;13363;52.772;-3.890;2022-07-21T01:02:54;1.43;;;1.07;;
25435;SDS011;13363;52.772;-3.890;2022-07-21T01:05:21;1.10;;;1.10;;
25435;SDS011;13363;52.772;-3.890;2022-07-21T01:07:49;2.50;;;1.20;;
25435;SDS011;13363;52.772;-3.890;2022-07-21T01:10:16;1.60;;;1.00;;
25435;SDS011;13363;52.772;-3.890;2022-07-21T01:12:44;1.03;;;1.03;;
25435;SDS011;13363;52.772;-3.890;2022-07-21T01:15:11;1.90;;;1.10;;
25435;SDS011;13363;52.772;-3.890;2022-07-21T01:17:40;1.10;;;1.10;;
25435;SDS011;13363;52.772;-3.890;2022-07-21T01:20:08;1.57;;;1.07;;
25435;SDS011;13363;52.772;-3.890;2022-07-21T01:22:37;1.20;;;1.20;;
25435;SDS011;13363;52.772;-3.890;2022-07-21T01:25:05;3.03;;;1.20;;
25435;SDS011;13363;52.772;-3.890;2022-07-21T01:27:31;1.23;;;0.90;;
25435;SDS011;13363;52.772;-3.890;2022-07-21T01:29:57;1.20;;;1.10;;
25435;SDS011;13363;52.772;-3.890;2022-07-21T01:32:24;1.00;;;1.00;;
25435;SDS011;13363;52.772;-3.890;2022-07-21T01:34:50;1.10;;;1.10;;
25435;SDS011;13363;52.772;-3.890;2022-07-21T01:37:20;0.97;;;0.70;;
25435;SDS011;13363;52.772;-3.890;2022-07-21T01:39:48;1.07;;;1.00;;
25435;SDS011;13363;52.772;-3.890;2022-07-21T01:42:35;2.57;;;1.13;;
25435;SDS011;13363;52.772;-3.890;2022-07-21T01:45:01;0.87;;;0.87;;
25435;SDS011;13363;52.772;-3.890;2022-07-21T01:47:29;1.13;;;1.10;;
25435;SDS011;13363;52.772;-3.890;2022-07-21T01:49:55;0.80;;;0.80;;
25435;SDS011;13363;52.772;-3.890;2022-07-21T01:52:21;1.00;;;1.00;;
25435;SDS011;13363;52.772;-3.890;2022-07-21T01:54:47;0.97;;;0.90;;
25435;SDS011;13363;52.772;-3.890;2022-07-21T01:57:13;1.13;;;1.00;;
25435;SDS011;13363;52.772;-3.890;2022-07-21T01:59:39;1.53;;;1.37;;
25435;SDS011;13363;52.772;-3.890;2022-07-21T02:02:05;0.90;;;0.90;;
25435;SDS011;13363;52.772;-3.890;2022-07-21T02:04:31;1.63;;;1.40;;
25435;SDS011;13363;52.772;-3.890;2022-07-21T02:06:59;1.13;;;1.03;;
25435;SDS011;13363;52.772;-3.890;2022-07-21T02:09:26;1.17;;;1.17;;
25435;SDS011;13363;52.772;-3.890;2022-07-21T02:11:52;1.10;;;1.10;;
25435;SDS011;13363;52.772;-3.890;2022-07-21T02:14:18;1.47;;;1.10;;
25435;SDS011;13363;52.772;-3.890;2022-07-21T02:16:44;2.53;;;1.40;;
25435;SDS011;13363;52.772;-3.890;2022-07-21T02:19:10;1.03;;;1.00;;
25435;SDS011;13363;52.772;-3.890;2022-07-21T02:21:36;1.40;;;1.30;;
25435;SDS011;13363;52.772;-3.890;2022-07-21T02:24:02;0.90;;;0.83;;
25435;SDS011;13363;52.772;-3.890;2022-07-21T02:26:28;1.30;;;1.17;;
25435;SDS011;13363;52.772;-3.890;2022-07-21T02:28:54;1.00;;;1.00;;
25435;SDS011;13363;52.772;-3.890;2022-07-21T02:31:20;0.90;;;0.90;;
25435;SDS011;13363;52.772;-3.890;2022-07-21T02:33:46;1.50;;;1.30;;
25435;SDS011;13363;52.772;-3.890;2022-07-21T02:36:12;1.03;;;1.03;;
25435;SDS011;13363;52.772;-3.890;2022-07-21T02:38:38;1.10;;;1.00;;
25435;SDS011;13363;52.772;-3.890;2022-07-21T02:41:04;0.77;;;0.70;;
25435;SDS011;13363;52.772;-3.890;2022-07-21T02:43:30;1.83;;;1.00;;
25435;SDS011;13363;52.772;-3.890;2022-07-21T02:45:56;0.90;;;0.90;;
25435;SDS011;13363;52.772;-3.890;2022-07-21T02:48:22;1.70;;;1.00;;
25435;SDS011;13363;52.772;-3.890;2022-07-21T02:50:48;1.03;;;1.00;;
25435;SDS011;13363;52.772;-3.890;2022-07-21T02:53:15;0.83;;;0.83;;
25435;SDS011;13363;52.772;-3.890;2022-07-21T02:55:48;0.90;;;0.77;;
25435;SDS011;13363;52.772;-3.890;2022-07-21T02:58:21;0.87;;;0.87;;
25435;SDS011;13363;52.772;-3.890;2022-07-21T03:00:50;1.20;;;1.17;;
25435;SDS011;13363;52.772;-3.890;2022-07-21T03:03:16;0.90;;;0.90;;
25435;SDS011;13363;52.772;-3.890;2022-07-21T03:05:42;1.23;;;1.00;;
25435;SDS011;13363;52.772;-3.890;2022-07-21T03:08:08;1.30;;;1.20;;
25435;SDS011;13363;52.772;-3.890;2022-07-21T03:10:36;2.37;;;1.03;;
25435;SDS011;13363;52.772;-3.890;2022-07-21T03:13:03;1.03;;;1.03;;
25435;SDS011;13363;52.772;-3.890;2022-07-21T03:15:29;1.33;;;1.23;;
25435;SDS011;13363;52.772;-3.890;2022-07-21T03:17:56;0.97;;;0.90;;
25435;SDS011;13363;52.772;-3.890;2022-07-21T03:20:23;1.90;;;0.80;;
25435;SDS011;13363;52.772;-3.890;2022-07-21T03:22:49;1.00;;;1.00;;
25435;SDS011;13363;52.772;-3.890;2022-07-21T03:25:16;0.90;;;0.90;;
25435;SDS011;13363;52.772;-3.890;2022-07-21T03:27:42;1.30;;;1.20;;
25435;SDS011;13363;52.772;-3.890;2022-07-21T03:30:09;1.50;;;1.03;;
25435;SDS011;13363;52.772;-3.890;2022-07-21T03:32:36;0.83;;;0.80;;
25435;SDS011;13363;52.772;-3.890;2022-07-21T03:35:02;0.90;;;0.90;;
25435;SDS011;13363;52.772;-3.890;2022-07-21T03:37:29;1.17;;;1.17;;
25435;SDS011;13363;52.772;-3.890;2022-07-21T03:39:55;1.10;;;1.10;;
25435;SDS011;13363;52.772;-3.890;2022-07-21T03:42:22;1.00;;;0.90;;
25435;SDS011;13363;52.772;-3.890;2022-07-21T03:44:48;0.80;;;0.80;;
25435;SDS011;13363;52.772;-3.890;2022-07-21T03:47:14;2.30;;;0.90;;
25435;SDS011;13363;52.772;-3.890;2022-07-21T03:49:40;1.00;;;1.00;;
25435;SDS011;13363;52.772;-3.890;2022-07-21T03:52:06;0.73;;;0.73;;
25435;SDS011;13363;52.772;-3.890;2022-07-21T03:54:31;1.13;;;1.10;;
25435;SDS011;13363;52.772;-3.890;2022-07-21T03:56:57;1.00;;;1.00;;
25435;SDS011;13363;52.772;-3.890;2022-07-21T03:59:23;1.17;;;0.90;;
25435;SDS011;13363;52.772;-3.890;2022-07-21T04:01:49;0.70;;;0.70;;
25435;SDS011;13363;52.772;-3.890;2022-07-21T04:04:15;0.80;;;0.80;;
25435;SDS011;13363;52.772;-3.890;2022-07-21T04:06:41;1.00;;;0.90;;
25435;SDS011;13363;52.772;-3.890;2022-07-21T04:09:07;0.83;;;0.83;;
25435;SDS011;13363;52.772;-3.890;2022-07-21T04:11:33;1.07;;;0.97;;
25435;SDS011;13363;52.772;-3.890;2022-07-21T04:13:59;0.70;;;0.70;;
25435;SDS011;13363;52.772;-3.890;2022-07-21T04:16:24;0.70;;;0.70;;
25435;SDS011;13363;52.772;-3.890;2022-07-21T04:18:52;1.87;;;1.00;;
25435;SDS011;13363;52.772;-3.890;2022-07-21T04:21:18;1.20;;;1.13;;
25435;SDS011;13363;52.772;-3.890;2022-07-21T04:23:44;1.20;;;1.10;;
25435;SDS011;13363;52.772;-3.890;2022-07-21T04:26:09;0.90;;;0.90;;
25435;SDS011;13363;52.772;-3.890;2022-07-21T04:28:36;1.03;;;1.00;;
25435;SDS011;13363;52.772;-3.890;2022-07-21T04:31:02;1.03;;;0.90;;
25435;SDS011;13363;52.772;-3.890;2022-07-21T04:33:28;1.43;;;1.10;;
25435;SDS011;13363;52.772;-3.890;2022-07-21T04:35:54;1.50;;;0.90;;
25435;SDS011;13363;52.772;-3.890;2022-07-21T04:38:19;0.90;;;0.90;;
25435;SDS011;13363;52.772;-3.890;2022-07-21T04:40:45;0.70;;;0.70;;
25435;SDS011;13363;52.772;-3.890;2022-07-21T04:43:11;1.53;;;1.00;;
25435;SDS011;13363;52.772;-3.890;2022-07-21T04:45:37;1.43;;;0.90;;
25435;SDS011;13363;52.772;-3.890;2022-07-21T04:48:03;1.63;;;0.97;;
25435;SDS011;13363;52.772;-3.890;2022-07-21T04:50:29;1.13;;;1.03;;
25435;SDS011;13363;52.772;-3.890;2022-07-21T04:52:57;1.90;;;0.90;;
25435;SDS011;13363;52.772;-3.890;2022-07-21T04:55:24;1.17;;;1.07;;
25435;SDS011;13363;52.772;-3.890;2022-07-21T04:57:50;0.90;;;0.90;;
25435;SDS011;13363;52.772;-3.890;2022-07-21T05:00:19;2.43;;;1.17;;
25435;SDS011;13363;52.772;-3.890;2022-07-21T05:02:46;0.80;;;0.80;;
25435;SDS011;13363;52.772;-3.890;2022-07-21T05:05:12;2.03;;;0.93;;
25435;SDS011;13363;52.772;-3.890;2022-07-21T05:07:39;3.07;;;1.00;;
25435;SDS011;13363;52.772;-3.890;2022-07-21T05:10:09;0.90;;;0.90;;
25435;SDS011;13363;52.772;-3.890;2022-07-21T05:12:37;3.97;;;1.10;;
25435;SDS011;13363;52.772;-3.890;2022-07-21T05:15:06;1.53;;;1.10;;
25435;SDS011;13363;52.772;-3.890;2022-07-21T05:17:34;1.73;;;1.10;;
25435;SDS011;13363;52.772;-3.890;2022-07-21T05:20:00;0.80;;;0.80;;
25435;SDS011;13363;52.772;-3.890;2022-07-21T05:22:27;0.80;;;0.80;;
25435;SDS011;13363;52.772;-3.890;2022-07-21T05:24:53;0.90;;;0.90;;
25435;SDS011;13363;52.772;-3.890;2022-07-21T05:27:19;1.10;;;1.10;;
25435;SDS011;13363;52.772;-3.890;2022-07-21T05:29:45;1.37;;;1.00;;
25435;SDS011;13363;52.772;-3.890;2022-07-21T05:32:11;1.10;;;1.10;;
25435;SDS011;13363;52.772;-3.890;2022-07-21T05:34:37;1.17;;;0.80;;
25435;SDS011;13363;52.772;-3.890;2022-07-21T05:37:03;1.23;;;0.80;;
25435;SDS011;13363;52.772;-3.890;2022-07-21T05:39:29;1.03;;;0.87;;
25435;SDS011;13363;52.772;-3.890;2022-07-21T05:41:55;1.43;;;1.00;;
25435;SDS011;13363;52.772;-3.890;2022-07-21T05:44:21;0.60;;;0.60;;
25435;SDS011;13363;52.772;-3.890;2022-07-21T05:46:46;0.70;;;0.70;;
25435;SDS011;13363;52.772;-3.890;2022-07-21T05:49:12;2.37;;;0.87;;
25435;SDS011;13363;52.772;-3.890;2022-07-21T05:51:38;0.70;;;0.70;;
25435;SDS011;13363;52.772;-3.890;2022-07-21T05:54:04;1.27;;;0.90;;
25435;SDS011;13363;52.772;-3.890;2022-07-21T05:56:30;1.10;;;1.10;;
25435;SDS011;13363;52.772;-3.890;2022-07-21T05:58:56;1.67;;;1.13;;
25435;SDS011;13363;52.772;-3.890;2022-07-21T06:01:22;0.80;;;0.80;;
25435;SDS011;13363;52.772;-3.890;2022-07-21T06:03:48;2.53;;;0.77;;
25435;SDS011;13363;52.772;-3.890;2022-07-21T06:06:15;1.23;;;1.00;;
25435;SDS011;13363;52.772;-3.890;2022-07-21T06:08:44;1.33;;;1.00;;
25435;SDS011;13363;52.772;-3.890;2022-07-21T06:11:13;1.57;;;1.47;;
25435;SDS011;13363;52.772;-3.890;2022-07-21T06:13:42;0.87;;;0.80;;
25435;SDS011;13363;52.772;-3.890;2022-07-21T06:16:09;1.70;;;0.90;;
25435;SDS011;13363;52.772;-3.890;2022-07-21T06:18:35;0.87;;;0.80;;
25435;SDS011;13363;52.772;-3.890;2022-07-21T06:21:01;0.57;;;0.57;;
25435;SDS011;13363;52.772;-3.890;2022-07-21T06:23:28;0.70;;;0.70;;
25435;SDS011;13363;52.772;-3.890;2022-07-21T06:25:55;1.73;;;0.63;;
25435;SDS011;13363;52.772;-3.890;2022-07-21T06:28:21;1.17;;;0.70;;
25435;SDS011;13363;52.772;-3.890;2022-07-21T06:30:47;1.17;;;0.70;;
25435;SDS011;13363;52.772;-3.890;2022-07-21T06:33:14;0.63;;;0.63;;
25435;SDS011;13363;52.772;-3.890;2022-07-21T06:35:40;0.80;;;0.70;;
25435;SDS011;13363;52.772;-3.890;2022-07-21T06:38:06;0.60;;;0.60;;
25435;SDS011;13363;52.772;-3.890;2022-07-21T06:40:32;1.83;;;0.80;;
25435;SDS011;13363;52.772;-3.890;2022-07-21T06:42:58;0.57;;;0.57;;
25435;SDS011;13363;52.772;-3.890;2022-07-21T06:45:24;0.90;;;0.67;;
25435;SDS011;13363;52.772;-3.890;2022-07-21T06:47:50;0.97;;;0.60;;
25435;SDS011;13363;52.772;-3.890;2022-07-21T06:50:23;0.83;;;0.77;;
25435;SDS011;13363;52.772;-3.890;2022-07-21T06:52:49;2.20;;;0.90;;
25435;SDS011;13363;52.772;-3.890;2022-07-21T06:55:15;0.77;;;0.70;;
25435;SDS011;13363;52.772;-3.890;2022-07-21T06:57:41;0.80;;;0.63;;
25435;SDS011;13363;52.772;-3.890;2022-07-21T07:00:07;0.93;;;0.63;;
25435;SDS011;13363;52.772;-3.890;2022-07-21T07:02:33;1.70;;;0.97;;
25435;SDS011;13363;52.772;-3.890;2022-07-21T07:04:59;1.60;;;0.90;;
25435;SDS011;13363;52.772;-3.890;2022-07-21T07:07:25;0.50;;;0.50;;
25435;SDS011;13363;52.772;-3.890;2022-07-21T07:09:51;0.87;;;0.83;;
25435;SDS011;13363;52.772;-3.890;2022-07-21T07:12:17;0.93;;;0.90;;
25435;SDS011;13363;52.772;-3.890;2022-07-21T07:14:44;0.60;;;0.60;;
25435;SDS011;13363;52.772;-3.890;2022-07-21T07:17:14;0.80;;;0.80;;
25435;SDS011;13363;52.772;-3.890;2022-07-21T07:19:50;1.43;;;1.03;;
25435;SDS011;13363;52.772;-3.890;2022-07-21T07:22:17;2.90;;;1.20;;
25435;SDS011;13363;52.772;-3.890;2022-07-21T07:24:43;4.23;;;1.10;;
25435;SDS011;13363;52.772;-3.890;2022-07-21T07:27:09;1.27;;;0.70;;
25435;SDS011;13363;52.772;-3.890;2022-07-21T07:29:36;2.13;;;0.90;;
25435;SDS011;13363;52.772;-3.890;2022-07-21T07:32:02;2.13;;;1.30;;
25435;SDS011;13363;52.772;-3.890;2022-07-21T07:34:28;0.90;;;0.80;;
25435;SDS011;13363;52.772;-3.890;2022-07-21T07:36:54;0.90;;;0.90;;
25435;SDS011;13363;52.772;-3.890;2022-07-21T07:39:20;1.27;;;1.00;;
25435;SDS011;13363;52.772;-3.890;2022-07-21T07:41:46;1.90;;;0.90;;
25435;SDS011;13363;52.772;-3.890;2022-07-21T07:44:12;0.80;;;0.80;;
25435;SDS011;13363;52.772;-3.890;2022-07-21T07:46:37;1.80;;;1.27;;
25435;SDS011;13363;52.772;-3.890;2022-07-21T07:49:03;1.23;;;1.13;;
25435;SDS011;13363;52.772;-3.890;2022-07-21T07:51:29;2.77;;;1.20;;
25435;SDS011;13363;52.772;-3.890;2022-07-21T07:53:55;2.73;;;1.33;;
25435;SDS011;13363;52.772;-3.890;2022-07-21T07:56:21;2.00;;;1.27;;
25435;SDS011;13363;52.772;-3.890;2022-07-21T07:58:47;3.53;;;1.40;;
25435;SDS011;13363;52.772;-3.890;2022-07-21T08:01:13;1.90;;;1.33;;
25435;SDS011;13363;52.772;-3.890;2022-07-21T08:03:41;2.07;;;1.37;;
25435;SDS011;13363;52.772;-3.890;2022-07-21T08:06:07;2.13;;;1.50;;
25435;SDS011;13363;52.772;-3.890;2022-07-21T08:08:33;1.63;;;1.33;;
25435;SDS011;13363;52.772;-3.890;2022-07-21T08:10:59;3.27;;;1.60;;
25435;SDS011;13363;52.772;-3.890;2022-07-21T08:13:25;2.37;;;1.40;;
25435;SDS011;13363;52.772;-3.890;2022-07-21T08:15:51;3.20;;;1.40;;
25435;SDS011;13363;52.772;-3.890;2022-07-21T08:18:18;4.40;;;1.50;;
25435;SDS011;13363;52.772;-3.890;2022-07-21T08:20:44;3.80;;;1.37;;
25435;SDS011;13363;52.772;-3.890;2022-07-21T08:23:12;2.17;;;1.40;;
25435;SDS011;13363;52.772;-3.890;2022-07-21T08:25:40;2.87;;;1.67;;
25435;SDS011;13363;52.772;-3.890;2022-07-21T08:28:07;4.07;;;1.33;;
25435;SDS011;13363;52.772;-3.890;2022-07-21T08:30:34;2.27;;;1.50;;
25435;SDS011;13363;52.772;-3.890;2022-07-21T08:33:01;1.90;;;1.60;;
25435;SDS011;13363;52.772;-3.890;2022-07-21T08:35:27;2.73;;;1.33;;
25435;SDS011;13363;52.772;-3.890;2022-07-21T08:37:56;3.43;;;1.60;;
25435;SDS011;13363;52.772;-3.890;2022-07-21T08:40:24;2.90;;;1.60;;
25435;SDS011;13363;52.772;-3.890;2022-07-21T08:42:52;2.33;;;1.43;;
25435;SDS011;13363;52.772;-3.890;2022-07-21T08:45:18;4.73;;;1.30;;
25435;SDS011;13363;52.772;-3.890;2022-07-21T08:47:45;3.90;;;1.77;;
25435;SDS011;13363;52.772;-3.890;2022-07-21T08:50:11;1.40;;;1.30;;
25435;SDS011;13363;52.772;-3.890;2022-07-21T08:52:37;2.00;;;1.70;;
25435;SDS011;13363;52.772;-3.890;2022-07-21T08:55:03;4.63;;;1.50;;
25435;SDS011;13363;52.772;-3.890;2022-07-21T08:57:30;3.07;;;1.40;;
25435;SDS011;13363;52.772;-3.890;2022-07-21T08:59:55;2.63;;;1.50;;
25435;SDS011;13363;52.772;-3.890;2022-07-21T09:02:31;3.20;;;1.70;;
25435;SDS011;13363;52.772;-3.890;2022-07-21T09:04:59;2.37;;;1.43;;
25435;SDS011;13363;52.772;-3.890;2022-07-21T09:07:25;3.30;;;1.63;;
25435;SDS011;13363;52.772;-3.890;2022-07-21T09:10:00;3.33;;;1.70;;
25435;SDS011;13363;52.772;-3.890;2022-07-21T09:12:28;1.80;;;1.70;;
25435;SDS011;13363;52.772;-3.890;2022-07-21T09:15:13;4.10;;;1.53;;
25435;SDS011;13363;52.772;-3.890;2022-07-21T09:17:41;2.47;;;2.03;;
25435;SDS011;13363;52.772;-3.890;2022-07-21T09:20:23;2.67;;;1.80;;
25435;SDS011;13363;52.772;-3.890;2022-07-21T09:25:32;3.77;;;1.60;;
25435;SDS011;13363;52.772;-3.890;2022-07-21T09:28:09;3.23;;;1.60;;
25435;SDS011;13363;52.772;-3.890;2022-07-21T09:33:22;3.37;;;1.50;;
25435;SDS011;13363;52.772;-3.890;2022-07-21T09:36:12;2.13;;;1.73;;
25435;SDS011;13363;52.772;-3.890;2022-07-21T09:38:41;3.73;;;1.50;;
25435;SDS011;13363;52.772;-3.890;2022-07-21T09:41:19;1.60;;;1.50;;
25435;SDS011;13363;52.772;-3.890;2022-07-21T09:43:50;2.80;;;1.93;;
25435;SDS011;13363;52.772;-3.890;2022-07-21T09:46:21;4.20;;;2.03;;
25435;SDS011;13363;52.772;-3.890;2022-07-21T09:48:53;4.27;;;1.70;;
25435;SDS011;13363;52.772;-3.890;2022-07-21T09:51:22;3.23;;;2.03;;
25435;SDS011;13363;52.772;-3.890;2022-07-21T09:54:01;2.73;;;1.57;;
25435;SDS011;13363;52.772;-3.890;2022-07-21T09:56:35;6.50;;;2.20;;
25435;SDS011;13363;52.772;-3.890;2022-07-21T09:59:06;2.47;;;1.53;;
25435;SDS011;13363;52.772;-3.890;2022-07-21T10:01:35;4.20;;;1.77;;
25435;SDS011;13363;52.772;-3.890;2022-07-21T10:04:01;2.37;;;1.53;;
25435;SDS011;13363;52.772;-3.890;2022-07-21T10:06:29;4.53;;;2.20;;
25435;SDS011;13363;52.772;-3.890;2022-07-21T10:08:58;3.67;;;1.80;;
25435;SDS011;13363;52.772;-3.890;2022-07-21T10:11:27;3.23;;;2.03;;
25435;SDS011;13363;52.772;-3.890;2022-07-21T10:13:54;3.57;;;1.70;;
25435;SDS011;13363;52.772;-3.890;2022-07-21T10:16:20;2.93;;;1.63;;
25435;SDS011;13363;52.772;-3.890;2022-07-21T10:21:23;4.20;;;1.63;;
25435;SDS011;13363;52.772;-3.890;2022-07-21T10:24:05;1.47;;;1.37;;
25435;SDS011;13363;52.772;-3.890;2022-07-21T10:26:34;2.43;;;1.80;;
25435;SDS011;13363;52.772;-3.890;2022-07-21T10:29:00;5.83;;;2.13;;
25435;SDS011;13363;52.772;-3.890;2022-07-21T10:31:26;3.73;;;1.90;;
25435;SDS011;13363;52.772;-3.890;2022-07-21T10:33:56;1.87;;;1.70;;
25435;SDS011;13363;52.772;-3.890;2022-07-21T10:41:41;2.47;;;1.40;;
25435;SDS011;13363;52.772;-3.890;2022-07-21T10:57:45;4.90;;;2.37;;
25435;SDS011;13363;52.772;-3.890;2022-07-21T11:00:28;5.13;;;1.97;;
25435;SDS011;13363;52.772;-3.890;2022-07-21T11:02:59;2.90;;;1.50;;
25435;SDS011;13363;52.772;-3.890;2022-07-21T11:05:28;2.67;;;1.90;;
25435;SDS011;13363;52.772;-3.890;2022-07-21T11:10:47;3.20;;;1.60;;
25435;SDS011;13363;52.772;-3.890;2022-07-21T11:13:14;3.50;;;1.63;;
25435;SDS011;13363;52.772;-3.890;2022-07-21T11:15:45;3.17;;;1.77;;
25435;SDS011;13363;52.772;-3.890;2022-07-21T11:18:17;4.90;;;1.90;;
25435;SDS011;13363;52.772;-3.890;2022-07-21T11:23:39;4.30;;;1.60;;
25435;SDS011;13363;52.772;-3.890;2022-07-21T11:26:17;3.63;;;1.90;;
25435;SDS011;13363;52.772;-3.890;2022-07-21T11:28:53;1.80;;;1.70;;
25435;SDS011;13363;52.772;-3.890;2022-07-21T11:31:30;4.33;;;2.10;;
25435;SDS011;13363;52.772;-3.890;2022-07-21T11:33:56;1.53;;;1.40;;
25435;SDS011;13363;52.772;-3.890;2022-07-21T11:36:23;2.17;;;1.70;;
25435;SDS011;13363;52.772;-3.890;2022-07-21T11:39:02;2.17;;;1.80;;
25435;SDS011;13363;52.772;-3.890;2022-07-21T11:41:31;2.47;;;1.80;;
25435;SDS011;13363;52.772;-3.890;2022-07-21T11:43:58;3.13;;;1.63;;
25435;SDS011;13363;52.772;-3.890;2022-07-21T11:46:24;2.90;;;2.00;;
25435;SDS011;13363;52.772;-3.890;2022-07-21T11:49:00;2.40;;;1.43;;
25435;SDS011;13363;52.772;-3.890;2022-07-21T11:51:30;3.27;;;2.20;;
25435;SDS011;13363;52.772;-3.890;2022-07-21T11:53:56;3.43;;;1.67;;
25435;SDS011;13363;52.772;-3.890;2022-07-21T11:56:22;3.17;;;1.90;;
25435;SDS011;13363;52.772;-3.890;2022-07-21T11:58:48;3.27;;;1.67;;
25435;SDS011;13363;52.772;-3.890;2022-07-21T12:01:14;1.92;;;1.75;;
25435;SDS011;13363;52.772;-3.890;2022-07-21T12:03:47;7.73;;;2.03;;
25435;SDS011;13363;52.772;-3.890;2022-07-21T12:06:14;2.97;;;1.77;;
25435;SDS011;13363;52.772;-3.890;2022-07-21T12:08:42;3.30;;;1.60;;
25435;SDS011;13363;52.772;-3.890;2022-07-21T12:11:09;5.87;;;2.30;;
25435;SDS011;13363;52.772;-3.890;2022-07-21T12:14:10;2.83;;;1.90;;
25435;SDS011;13363;52.772;-3.890;2022-07-21T12:16:29;5.13;;;1.70;;
25435;SDS011;13363;52.772;-3.890;2022-07-21T12:19:11;3.47;;;2.03;;
25435;SDS011;13363;52.772;-3.890;2022-07-21T12:21:43;4.90;;;2.10;;
25435;SDS011;13363;52.772;-3.890;2022-07-21T12:24:10;1.50;;;1.40;;
25435;SDS011;13363;52.772;-3.890;2022-07-21T12:26:36;3.17;;;1.57;;
25435;SDS011;13363;52.772;-3.890;2022-07-21T12:29:02;5.13;;;1.80;;
25435;SDS011;13363;52.772;-3.890;2022-07-21T12:31:28;1.90;;;1.80;;
25435;SDS011;13363;52.772;-3.890;2022-07-21T12:34:10;2.03;;;1.63;;
25435;SDS011;13363;52.772;-3.890;2022-07-21T12:36:37;4.37;;;1.90;;
25435;SDS011;13363;52.772;-3.890;2022-07-21T12:39:16;1.97;;;1.63;;
25435;SDS011;13363;52.772;-3.890;2022-07-21T12:42:06;3.83;;;1.87;;
25435;SDS011;13363;52.772;-3.890;2022-07-21T12:44:34;3.43;;;1.90;;
25435;SDS011;13363;52.772;-3.890;2022-07-21T12:47:17;2.00;;;1.80;;
25435;SDS011;13363;52.772;-3.890;2022-07-21T12:49:57;3.00;;;1.60;;
25435;SDS011;13363;52.772;-3.890;2022-07-21T12:52:24;2.73;;;1.50;;
25435;SDS011;13363;52.772;-3.890;2022-07-21T12:54:51;2.40;;;1.80;;
25435;SDS011;13363;52.772;-3.890;2022-07-21T12:57:17;1.50;;;1.40;;
25435;SDS011;13363;52.772;-3.890;2022-07-21T12:59:42;4.10;;;1.57;;
25435;SDS011;13363;52.772;-3.890;2022-07-21T13:02:09;3.60;;;1.83;;
25435;SDS011;13363;52.772;-3.890;2022-07-21T13:04:35;3.03;;;1.70;;
25435;SDS011;13363;52.772;-3.890;2022-07-21T13:07:01;3.17;;;1.63;;
25435;SDS011;13363;52.772;-3.890;2022-07-21T13:09:27;2.10;;;1.70;;
25435;SDS011;13363;52.772;-3.890;2022-07-21T13:11:52;2.10;;;1.77;;
25435;SDS011;13363;52.772;-3.890;2022-07-21T13:14:18;2.53;;;1.73;;
25435;SDS011;13363;52.772;-3.890;2022-07-21T13:16:44;3.13;;;1.80;;
25435;SDS011;13363;52.772;-3.890;2022-07-21T13:19:10;2.63;;;1.77;;
25435;SDS011;13363;52.772;-3.890;2022-07-21T13:21:36;4.10;;;1.50;;
25435;SDS011;13363;52.772;-3.890;2022-07-21T13:24:02;4.53;;;1.80;;
25435;SDS011;13363;52.772;-3.890;2022-07-21T13:26:28;3.23;;;1.87;;
25435;SDS011;13363;52.772;-3.890;2022-07-21T13:28:54;3.37;;;1.90;;
25435;SDS011;13363;52.772;-3.890;2022-07-21T13:31:20;4.27;;;1.80;;
25435;SDS011;13363;52.772;-3.890;2022-07-21T13:33:46;3.17;;;1.90;;
25435;SDS011;13363;52.772;-3.890;2022-07-21T13:36:12;1.93;;;1.50;;
25435;SDS011;13363;52.772;-3.890;2022-07-21T13:38:38;1.67;;;1.53;;
25435;SDS011;13363;52.772;-3.890;2022-07-21T13:41:04;3.43;;;1.93;;
25435;SDS011;13363;52.772;-3.890;2022-07-21T13:43:31;3.53;;;1.73;;
25435;SDS011;13363;52.772;-3.890;2022-07-21T13:45:57;2.60;;;1.70;;
25435;SDS011;13363;52.772;-3.890;2022-07-21T13:48:23;5.33;;;2.30;;
25435;SDS011;13363;52.772;-3.890;2022-07-21T13:50:49;4.57;;;2.10;;
25435;SDS011;13363;52.772;-3.890;2022-07-21T13:53:15;2.03;;;1.67;;
25435;SDS011;13363;52.772;-3.890;2022-07-21T13:55:41;4.10;;;1.73;;
25435;SDS011;13363;52.772;-3.890;2022-07-21T13:58:07;7.10;;;1.98;;
25435;SDS011;13363;52.772;-3.890;2022-07-21T14:00:33;3.10;;;2.10;;
25435;SDS011;13363;52.772;-3.890;2022-07-21T14:03:00;2.23;;;1.90;;
25435;SDS011;13363;52.772;-3.890;2022-07-21T14:05:26;4.50;;;2.47;;
25435;SDS011;13363;52.772;-3.890;2022-07-21T14:07:52;1.70;;;1.60;;
25435;SDS011;13363;52.772;-3.890;2022-07-21T14:10:17;2.20;;;2.00;;
25435;SDS011;13363;52.772;-3.890;2022-07-21T14:12:45;3.65;;;1.92;;
25435;SDS011;13363;52.772;-3.890;2022-07-21T14:15:11;4.27;;;1.77;;
25435;SDS011;13363;52.772;-3.890;2022-07-21T14:17:37;4.13;;;2.20;;
25435;SDS011;13363;52.772;-3.890;2022-07-21T14:20:03;3.78;;;2.08;;
25435;SDS011;13363;52.772;-3.890;2022-07-21T14:22:30;3.00;;;1.70;;
25435;SDS011;13363;52.772;-3.890;2022-07-21T14:24:56;4.33;;;2.20;;
25435;SDS011;13363;52.772;-3.890;2022-07-21T14:27:40;2.73;;;2.00;;
25435;SDS011;13363;52.772;-3.890;2022-07-21T14:30:06;3.13;;;1.80;;
25435;SDS011;13363;52.772;-3.890;2022-07-21T14:32:32;2.80;;;1.70;;
25435;SDS011;13363;52.772;-3.890;2022-07-21T14:34:58;2.47;;;1.90;;
25435;SDS011;13363;52.772;-3.890;2022-07-21T14:37:24;2.33;;;1.92;;
25435;SDS011;13363;52.772;-3.890;2022-07-21T14:39:50;1.98;;;1.75;;
25435;SDS011;13363;52.772;-3.890;2022-07-21T14:42:16;1.75;;;1.60;;
25435;SDS011;13363;52.772;-3.890;2022-07-21T14:44:42;2.80;;;1.85;;
25435;SDS011;13363;52.772;-3.890;2022-07-21T14:47:10;3.13;;;1.70;;
25435;SDS011;13363;52.772;-3.890;2022-07-21T14:49:37;2.03;;;1.80;;
25435;SDS011;13363;52.772;-3.890;2022-07-21T14:52:03;2.25;;;1.80;;
25435;SDS011;13363;52.772;-3.890;2022-07-21T14:54:30;2.70;;;1.90;;
25435;SDS011;13363;52.772;-3.890;2022-07-21T14:56:56;2.15;;;1.58;;
25435;SDS011;13363;52.772;-3.890;2022-07-21T14:59:22;1.95;;;1.73;;
25435;SDS011;13363;52.772;-3.890;2022-07-21T15:01:48;2.67;;;2.05;;
25435;SDS011;13363;52.772;-3.890;2022-07-21T15:04:20;2.42;;;2.03;;
25435;SDS011;13363;52.772;-3.890;2022-07-21T15:06:47;4.70;;;1.90;;
25435;SDS011;13363;52.772;-3.890;2022-07-21T15:09:14;4.18;;;1.92;;